Данни от 21.06.2024 г. 20:24:02

Температура вътрешна: 29.5 °C
Температура външна: 32.8 °C
Атмосферно налягане: 996.7 hPa
Атмосферно налягане на морско равнище: 1014.5 hPa
Влажност: 57.1 %



История от последните 24 часа

Дата и часTin [°C]P [hPa]Psl [hPa]H [%]Tout [°C]
   21.06.2024 г. 20:00:01      29.5      996.8      1014.5      56.3      33.4   
   21.06.2024 г. 19:30:02      29.5      996.8      1014.6      56.9      33.6   
   21.06.2024 г. 19:00:01      29.4      997.1      1014.9      58.1      33.9   
   21.06.2024 г. 18:30:02      29.4      997.3      1015.1      57.5      34.4   
   21.06.2024 г. 18:00:01      29.4      997.4      1015.2      56.8      35.1   
   21.06.2024 г. 17:30:02      29.3      997.6      1015.4      56.0      37.3   
   21.06.2024 г. 17:00:01      29.3      997.9      1015.7      56.0      37.3   
   21.06.2024 г. 16:30:02      29.3      998.4      1016.2      56.6      36.7   
   21.06.2024 г. 16:00:01      29.3      998.6      1016.4      56.3      35.5   
   21.06.2024 г. 15:30:01      29.3      998.8      1016.6      56.1      34.3   
   21.06.2024 г. 15:00:01      29.2      999.1      1017.0      55.9      33.1   
   21.06.2024 г. 14:30:01      29.2      999.3      1017.1      55.6      32.5   
   21.06.2024 г. 14:00:01      29.2      999.6      1017.4      56.7      31.9   
   21.06.2024 г. 13:30:01      29.2      1000.0      1017.8      56.1      31.8   
   21.06.2024 г. 13:00:01      29.1      1000.4      1018.2      56.2      31.5   
   21.06.2024 г. 12:30:01      29.1      1000.8      1018.6      55.6      30.8   
   21.06.2024 г. 12:00:01      29.0      1000.9      1018.8      55.3      30.6   
   21.06.2024 г. 11:30:01      29.0      1001.0      1018.8      55.6      30.0   
   21.06.2024 г. 11:00:02      28.9      1001.0      1018.9      55.6      29.6   
   21.06.2024 г. 10:30:01      28.9      1001.1      1019.0      54.4      29.3   
   21.06.2024 г. 10:00:02      28.8      1001.1      1019.0      55.1      28.5   
   21.06.2024 г. 09:30:01      28.7      1001.0      1018.8      54.6      27.9   
   21.06.2024 г. 09:00:02      28.5      1000.9      1018.8      54.7      27.0   
   21.06.2024 г. 08:30:01      28.3      1000.6      1018.5      54.7      26.6   
   21.06.2024 г. 08:00:02      27.9      1000.5      1018.3      55.1      26.0   
   21.06.2024 г. 07:30:01      27.7      1000.5      1018.3      56.1      25.1   
   21.06.2024 г. 07:00:02      27.7      1000.3      1018.2      54.9      24.4   
   21.06.2024 г. 06:30:01      27.4      1000.4      1018.2      56.4      23.3   
   21.06.2024 г. 06:00:02      27.7      1000.4      1018.3      56.4      22.5   
   21.06.2024 г. 05:30:01      28.0      1000.3      1018.2      55.8      23.3   
   21.06.2024 г. 05:00:02      27.9      1000.2      1018.1      55.9      24.9   
   21.06.2024 г. 04:30:01      28.2      1000.3      1018.1      55.5      25.0   
   21.06.2024 г. 04:00:02      28.4      1000.6      1018.4      55.2      24.3   
   21.06.2024 г. 03:30:01      28.3      1000.4      1018.2      54.9      26.0   
   21.06.2024 г. 03:00:02      28.6      1000.5      1018.4      54.5      27.6   
   21.06.2024 г. 02:30:01      28.7      1000.5      1018.3      55.3      28.1   
   21.06.2024 г. 02:00:02      28.8      1000.4      1018.3      55.3      28.8   
   21.06.2024 г. 01:30:01      29.1      1000.1      1017.9      55.5      29.1   
   21.06.2024 г. 01:00:02      29.3      1000.0      1017.9      55.6      29.5   
   21.06.2024 г. 00:30:01      29.3      999.9      1017.8      55.7      29.6   
   21.06.2024 г. 00:00:02      29.3      999.7      1017.5      55.3      29.9   
   20.06.2024 г. 23:30:01      29.3      999.5      1017.3      55.5      30.0   
   20.06.2024 г. 23:00:02      29.2      999.3      1017.2      55.3      30.3   
   20.06.2024 г. 22:30:01      29.2      998.4      1016.3      55.6      30.4   
   20.06.2024 г. 22:00:02      29.2      998.1      1015.9      55.7      30.4   
   20.06.2024 г. 21:30:01      29.2      997.7      1015.5      55.3      30.5   
   20.06.2024 г. 21:00:02      29.2      997.5      1015.3      55.0      30.9   
   20.06.2024 г. 20:30:01      29.1      997.5      1015.3      54.2      31.9   

BaroSL graphic

TEMPE graphic